createdAt,value
2019-01-24T00:00:09.296Z,-437.15
2019-01-24T00:01:09.503Z,-436.38
2019-01-24T00:02:09.620Z,-436.66
2019-01-24T00:03:09.825Z,-437.35
2019-01-24T00:04:13.125Z,-438.17
2019-01-24T00:05:11.158Z,-435.05
2019-01-24T00:06:10.374Z,-439.09
2019-01-24T00:07:10.481Z,-436.03
2019-01-24T00:08:10.669Z,-437.95
2019-01-24T00:09:10.850Z,-437.59
2019-01-24T00:10:11.001Z,-436.85
2019-01-24T00:11:11.205Z,-435.66
2019-01-24T00:12:11.471Z,-438.34
2019-01-24T00:13:11.543Z,-438.05
2019-01-24T00:14:11.709Z,-438.75
2019-01-24T00:15:11.852Z,-437.94
2019-01-24T00:16:12.029Z,-439.31
2019-01-24T00:17:12.189Z,-437.63
2019-01-24T00:18:12.359Z,-435.18
2019-01-24T00:19:12.545Z,-436.42
2019-01-24T00:20:12.755Z,-436.21
2019-01-24T00:21:12.887Z,-436.85
2019-01-24T00:22:13.030Z,-437.75
2019-01-24T00:23:13.217Z,-435.45
2019-01-24T00:24:13.597Z,-437.62
2019-01-24T00:25:13.543Z,-439.73
2019-01-24T00:26:13.737Z,-439.14
2019-01-24T00:27:13.900Z,-438.41
2019-01-24T00:28:14.146Z,-439.49
2019-01-24T00:29:14.220Z,-439.77
2019-01-24T00:30:14.367Z,-436.48
2019-01-24T00:31:14.575Z,-438.43
2019-01-24T00:32:14.733Z,-440.36
2019-01-24T00:33:14.898Z,-437.96
2019-01-24T00:34:15.090Z,-438.24
2019-01-24T00:35:15.239Z,-437.59
2019-01-24T00:36:15.439Z,-437.45
2019-01-24T00:37:15.646Z,-438.49
2019-01-24T00:38:15.772Z,-438.92
2019-01-24T00:39:15.943Z,-435.18
2019-01-24T00:40:16.092Z,-439.18
2019-01-24T00:41:16.250Z,-437.97
2019-01-24T00:42:16.433Z,-438.22
2019-01-24T00:43:16.619Z,-438.73
2019-01-24T00:44:16.827Z,-439.16
2019-01-24T00:45:17.035Z,-437.53
2019-01-24T00:46:17.095Z,-438.27
2019-01-24T00:47:17.287Z,-439.95
2019-01-24T00:48:17.475Z,-438.94
2019-01-24T00:49:17.646Z,-438.60
2019-01-24T00:50:17.794Z,-438.90
2019-01-24T00:51:17.970Z,-438.97
2019-01-24T00:52:18.140Z,-439.53
2019-01-24T00:53:18.459Z,-440.05
2019-01-24T00:54:18.489Z,-437.70
2019-01-24T00:55:18.655Z,-439.81
2019-01-24T00:56:18.826Z,-439.38
2019-01-24T00:57:18.994Z,-438.23
2019-01-24T00:58:19.180Z,-438.66
2019-01-24T00:59:19.349Z,-441.55
2019-01-24T01:00:19.513Z,-438.36
2019-01-24T01:01:19.701Z,-437.53
2019-01-24T01:02:19.840Z,-438.06
2019-01-24T01:03:19.985Z,-436.01
2019-01-24T01:04:20.189Z,-437.82
2019-01-24T01:05:20.336Z,-439.84
2019-01-24T01:06:20.511Z,-440.38
2019-01-24T01:07:20.690Z,-438.01
2019-01-24T01:08:20.842Z,-438.25
2019-01-24T01:09:21.076Z,-438.74
2019-01-24T01:10:21.247Z,-438.23
2019-01-24T01:11:21.378Z,-437.45
2019-01-24T01:12:21.553Z,-437.75
2019-01-24T01:13:21.705Z,-436.94
2019-01-24T01:14:21.878Z,-440.47
2019-01-24T01:15:22.029Z,-438.27
2019-01-24T01:16:22.230Z,-438.03
2019-01-24T01:17:22.417Z,-438.82
2019-01-24T01:18:22.695Z,-438.80
2019-01-24T01:19:22.723Z,-439.76
2019-01-24T01:20:22.892Z,-435.80
2019-01-24T01:21:23.074Z,-437.70
2019-01-24T01:22:23.313Z,-438.48
2019-01-24T01:23:23.415Z,-435.94
2019-01-24T01:24:23.599Z,-439.24
2019-01-24T01:25:23.753Z,-436.75
2019-01-24T01:26:24.022Z,-436.47
2019-01-24T01:27:24.112Z,-439.35
2019-01-24T01:28:24.260Z,-436.91
2019-01-24T01:29:24.454Z,-437.35
2019-01-24T01:30:24.595Z,-439.78
2019-01-24T01:31:24.773Z,-437.35
2019-01-24T01:32:24.981Z,-438.72
2019-01-24T01:33:25.132Z,-438.02
2019-01-24T01:34:25.339Z,-437.87
2019-01-24T01:35:25.421Z,-435.84
2019-01-24T01:36:25.597Z,-436.82
2019-01-24T01:37:25.797Z,-436.71
2019-01-24T01:38:25.969Z,-437.44
2019-01-24T01:39:26.131Z,-436.99
2019-01-24T01:40:26.291Z,-437.82
2019-01-24T01:41:26.461Z,-437.50
2019-01-24T01:42:26.703Z,-438.84
2019-01-24T01:43:26.797Z,-437.42
2019-01-24T01:44:26.971Z,-437.55
2019-01-24T01:45:27.123Z,-437.30
2019-01-24T01:46:27.293Z,-439.71
2019-01-24T01:47:27.486Z,-438.76
2019-01-24T01:48:27.636Z,-437.29
2019-01-24T01:49:27.813Z,-436.23
2019-01-24T01:50:28.008Z,-437.94
2019-01-24T01:51:28.253Z,-437.11
2019-01-24T01:52:28.330Z,-438.84
2019-01-24T01:53:28.492Z,-436.73
2019-01-24T01:54:28.673Z,-438.53
2019-01-24T01:55:28.848Z,-436.62
2019-01-24T01:56:29.008Z,-440.49
2019-01-24T01:57:29.204Z,-437.70
2019-01-24T01:58:29.374Z,-437.76
2019-01-24T01:59:29.634Z,-437.20
2019-01-24T02:00:29.943Z,-437.98
2019-01-24T02:01:29.866Z,-438.01
2019-01-24T02:02:30.051Z,-435.84
2019-01-24T02:03:30.206Z,-437.16
2019-01-24T02:04:30.356Z,-437.87
2019-01-24T02:05:30.555Z,-437.09
2019-01-24T02:06:30.705Z,-437.71
2019-01-24T02:07:31.002Z,-438.17
2019-01-24T02:08:31.049Z,-434.67
2019-01-24T02:09:31.197Z,-435.53
2019-01-24T02:10:31.396Z,-439.23
2019-01-24T02:11:31.550Z,-436.52
2019-01-24T02:12:31.737Z,-437.84
2019-01-24T02:13:31.897Z,-438.71
2019-01-24T02:14:32.049Z,-437.25
2019-01-24T02:15:32.264Z,-435.82
2019-01-24T02:16:32.382Z,-437.84
2019-01-24T02:17:32.571Z,-436.38
2019-01-24T02:18:32.729Z,-436.31
2019-01-24T02:19:32.898Z,-438.14
2019-01-24T02:20:33.084Z,-435.78
2019-01-24T02:21:33.220Z,-438.38
2019-01-24T02:22:33.415Z,-439.04
2019-01-24T02:23:33.630Z,-438.28
2019-01-24T02:24:33.749Z,-436.80
2019-01-24T02:25:33.960Z,-437.71
2019-01-24T02:26:34.101Z,-436.29
2019-01-24T02:27:34.274Z,-435.15
2019-01-24T02:28:34.457Z,-437.75
2019-01-24T02:29:34.629Z,-437.93
2019-01-24T02:30:34.800Z,-437.52
2019-01-24T02:31:35.202Z,-435.91
2019-01-24T02:32:35.224Z,-435.90
2019-01-24T02:33:35.285Z,-434.72
2019-01-24T02:34:35.452Z,-437.57
2019-01-24T02:35:35.635Z,-434.13
2019-01-24T02:36:35.786Z,-438.38
2019-01-24T02:37:35.982Z,-436.24
2019-01-24T02:38:36.118Z,-432.81
2019-01-24T02:39:36.293Z,-434.72
2019-01-24T02:40:36.585Z,-434.92
2019-01-24T02:41:36.620Z,-433.78
2019-01-24T02:42:36.807Z,-431.62
2019-01-24T02:43:36.967Z,-434.93
2019-01-24T02:44:37.151Z,-434.64
2019-01-24T02:45:37.316Z,-435.38
2019-01-24T02:46:37.482Z,-431.26
2019-01-24T02:47:37.682Z,-434.42
2019-01-24T02:48:37.858Z,-436.36
2019-01-24T02:49:37.967Z,-435.51
2019-01-24T02:50:38.153Z,-434.47
2019-01-24T02:51:38.305Z,-436.31
2019-01-24T02:52:38.493Z,-435.02
2019-01-24T02:53:38.641Z,-433.51
2019-01-24T02:54:38.812Z,-434.84
2019-01-24T02:55:38.998Z,-435.00
2019-01-24T02:56:39.201Z,-434.65
2019-01-24T02:57:39.314Z,-437.30
2019-01-24T02:58:39.475Z,-436.39
2019-01-24T02:59:39.659Z,-435.89
2019-01-24T03:00:39.807Z,-435.89
2019-01-24T03:01:39.980Z,-434.31
2019-01-24T03:02:40.151Z,-433.37
2019-01-24T03:03:40.326Z,-437.35
2019-01-24T03:04:40.561Z,-435.86
2019-01-24T03:05:40.693Z,-435.63
2019-01-24T03:06:40.827Z,-434.39
2019-01-24T03:07:40.999Z,-433.77
2019-01-24T03:08:41.185Z,-437.09
2019-01-24T03:09:41.371Z,-433.47
2019-01-24T03:10:41.532Z,-438.72
2019-01-24T03:11:41.677Z,-434.54
2019-01-24T03:12:41.896Z,-435.24
2019-01-24T03:13:42.176Z,-436.00
2019-01-24T03:14:42.238Z,-438.31
2019-01-24T03:15:42.413Z,-435.78
2019-01-24T03:16:42.546Z,-437.07
2019-01-24T03:17:42.731Z,-434.78
2019-01-24T03:18:42.919Z,-436.71
2019-01-24T03:19:43.072Z,-438.34
2019-01-24T03:20:43.252Z,-437.07
2019-01-24T03:21:43.536Z,-436.74
2019-01-24T03:22:43.583Z,-437.77
2019-01-24T03:23:43.757Z,-435.66
2019-01-24T03:24:43.924Z,-435.54
2019-01-24T03:25:44.104Z,-435.32
2019-01-24T03:26:44.256Z,-435.87
2019-01-24T03:27:44.410Z,-435.85
2019-01-24T03:28:44.607Z,-435.55
2019-01-24T03:29:44.864Z,-434.84
2019-01-24T03:30:44.928Z,-434.55
2019-01-24T03:31:45.086Z,-431.92
2019-01-24T03:32:45.256Z,-437.44
2019-01-24T03:33:45.439Z,-436.57
2019-01-24T03:34:45.606Z,-433.37
2019-01-24T03:35:45.777Z,-435.52
2019-01-24T03:36:45.922Z,-435.70
2019-01-24T03:37:46.143Z,-436.46
2019-01-24T03:38:46.242Z,-435.43
2019-01-24T03:39:46.419Z,-437.06
2019-01-24T03:40:46.612Z,-436.67
2019-01-24T03:41:46.768Z,-435.79
2019-01-24T03:42:46.928Z,-436.14
2019-01-24T03:43:47.129Z,-434.32
2019-01-24T03:44:47.288Z,-425.15
2019-01-24T03:45:47.476Z,-428.74
2019-01-24T03:46:47.674Z,-433.97
2019-01-24T03:47:47.785Z,-433.37
2019-01-24T03:48:47.967Z,-434.08
2019-01-24T03:49:48.128Z,-432.43
2019-01-24T03:50:48.289Z,-432.44
2019-01-24T03:51:48.453Z,-434.85
2019-01-24T03:52:48.628Z,-434.62
2019-01-24T03:53:48.820Z,-433.77
2019-01-24T03:54:49.081Z,-435.17
2019-01-24T03:55:49.144Z,-435.46
2019-01-24T03:56:49.306Z,-433.42
2019-01-24T03:57:49.475Z,-435.52
2019-01-24T03:58:49.656Z,-435.51
2019-01-24T03:59:49.828Z,-434.39
2019-01-24T04:00:50.012Z,-433.81
2019-01-24T04:01:50.140Z,-436.52
2019-01-24T04:02:50.485Z,-432.78
2019-01-24T04:03:50.505Z,-436.34
2019-01-24T04:04:50.678Z,-434.39
2019-01-24T04:05:50.854Z,-431.28
2019-01-24T04:06:50.982Z,-434.44
2019-01-24T04:07:51.167Z,-436.04
2019-01-24T04:08:51.367Z,-434.29
2019-01-24T04:09:51.534Z,-433.13
2019-01-24T04:10:51.723Z,-432.16
2019-01-24T04:11:51.844Z,-433.54
2019-01-24T04:12:52.004Z,-429.67
2019-01-24T04:13:52.205Z,-433.22
2019-01-24T04:14:52.373Z,-434.84
2019-01-24T04:15:52.527Z,-435.39
2019-01-24T04:16:52.715Z,-433.09
2019-01-24T04:17:52.879Z,-432.59
2019-01-24T04:18:53.095Z,-431.72
2019-01-24T04:19:53.274Z,-432.04
2019-01-24T04:20:53.394Z,-435.30
2019-01-24T04:21:53.574Z,-434.31
2019-01-24T04:22:53.737Z,-433.84
2019-01-24T04:23:53.924Z,-434.44
2019-01-24T04:24:54.076Z,-432.41
2019-01-24T04:25:54.241Z,-432.23
2019-01-24T04:26:54.463Z,-432.36
2019-01-24T04:27:54.680Z,-434.27
2019-01-24T04:28:54.757Z,-430.63
2019-01-24T04:29:54.916Z,-434.08
2019-01-24T04:30:55.113Z,-430.28
2019-01-24T04:31:55.280Z,-430.68
2019-01-24T04:32:55.432Z,-430.72
2019-01-24T04:33:55.618Z,-429.97
2019-01-24T04:34:55.769Z,-431.84
2019-01-24T04:35:56.029Z,-425.53
2019-01-24T04:36:56.124Z,-430.59
2019-01-24T04:37:56.272Z,-433.10
2019-01-24T04:38:56.465Z,-432.54
2019-01-24T04:39:56.598Z,-433.34
2019-01-24T04:40:56.808Z,-435.33
2019-01-24T04:41:56.966Z,-429.94
2019-01-24T04:42:57.119Z,-433.40
2019-01-24T04:43:57.375Z,-434.39
2019-01-24T04:44:57.443Z,-434.51
2019-01-24T04:45:57.618Z,-433.42
2019-01-24T04:46:57.801Z,-434.58
2019-01-24T04:47:57.956Z,-433.59
2019-01-24T04:48:58.143Z,-433.65
2019-01-24T04:49:58.292Z,-434.60
2019-01-24T04:50:58.478Z,-432.03
2019-01-24T04:51:58.663Z,-431.32
2019-01-24T04:52:58.784Z,-429.68
2019-01-24T04:53:58.978Z,-430.07
2019-01-24T04:54:59.134Z,-431.76
2019-01-24T04:55:59.290Z,-429.89
2019-01-24T04:56:59.484Z,-429.52
2019-01-24T04:57:59.628Z,-421.85
2019-01-24T04:58:59.829Z,-428.23
2019-01-24T05:00:00.197Z,-431.18
2019-01-24T05:01:00.243Z,-431.59
2019-01-24T05:02:00.348Z,-432.11
2019-01-24T05:03:00.487Z,-431.31
2019-01-24T05:04:00.684Z,-427.39
2019-01-24T05:05:00.854Z,-433.74
2019-01-24T05:06:01.028Z,-433.84
2019-01-24T05:07:01.208Z,-432.79
2019-01-24T05:08:01.366Z,-431.42
2019-01-24T05:09:01.622Z,-430.70
2019-01-24T05:10:02.307Z,-431.73
2019-01-24T05:11:01.883Z,-431.50
2019-01-24T05:12:02.051Z,-431.96
2019-01-24T05:13:02.200Z,-429.21
2019-01-24T05:14:02.353Z,-426.61
2019-01-24T05:15:02.518Z,-423.96
2019-01-24T05:16:02.721Z,-427.07
2019-01-24T05:17:03.252Z,-425.93
2019-01-24T05:18:03.042Z,-422.37
2019-01-24T05:19:03.196Z,-431.10
2019-01-24T05:20:03.414Z,-430.00
2019-01-24T05:21:03.597Z,-423.77
2019-01-24T05:22:03.766Z,-425.39
2019-01-24T05:23:03.911Z,-427.20
2019-01-24T05:24:04.088Z,-424.68
2019-01-24T05:25:04.284Z,-427.60
2019-01-24T05:26:04.447Z,-424.61
2019-01-24T05:27:04.622Z,-426.56
2019-01-24T05:28:04.773Z,-428.98
2019-01-24T05:29:04.941Z,-425.83
2019-01-24T05:30:05.128Z,-427.68
2019-01-24T05:31:05.267Z,-425.27
2019-01-24T05:32:05.464Z,-420.51
2019-01-24T05:33:05.687Z,-424.47
2019-01-24T05:34:05.782Z,-424.70
2019-01-24T05:35:05.976Z,-420.50
2019-01-24T05:36:06.145Z,-417.15
2019-01-24T05:37:06.305Z,-417.46
2019-01-24T05:38:06.470Z,-421.35
2019-01-24T05:39:06.634Z,-426.07
2019-01-24T05:40:06.828Z,-425.63
2019-01-24T05:41:07.016Z,-421.91
2019-01-24T05:42:07.245Z,-423.50
2019-01-24T05:43:07.318Z,-421.90
2019-01-24T05:44:07.488Z,-423.37
2019-01-24T05:45:07.676Z,-425.67
2019-01-24T05:46:07.836Z,-428.35
2019-01-24T05:47:08.014Z,-428.04
2019-01-24T05:48:08.151Z,-422.76
2019-01-24T05:49:08.336Z,-429.51
2019-01-24T05:50:08.663Z,-423.89
2019-01-24T05:51:08.714Z,-425.79
2019-01-24T05:52:08.872Z,-428.89
2019-01-24T05:53:09.043Z,-425.76
2019-01-24T05:54:09.197Z,-425.46
2019-01-24T05:55:09.387Z,-420.31
2019-01-24T05:56:09.561Z,-424.75
2019-01-24T05:57:09.727Z,-423.11
2019-01-24T05:58:09.908Z,-424.54
2019-01-24T05:59:10.044Z,-422.64
2019-01-24T06:00:10.227Z,-426.87
2019-01-24T06:01:10.396Z,-421.64
2019-01-24T06:02:10.558Z,-423.91
2019-01-24T06:03:10.718Z,-429.87
2019-01-24T06:04:10.866Z,-423.20
2019-01-24T06:05:11.075Z,-425.66
2019-01-24T06:06:11.308Z,-431.59
2019-01-24T06:07:11.411Z,-427.70
2019-01-24T06:08:11.568Z,-431.27
2019-01-24T06:09:11.737Z,-430.36
2019-01-24T06:10:11.904Z,-423.80
2019-01-24T06:11:12.103Z,-427.45
2019-01-24T06:12:12.257Z,-428.85
2019-01-24T06:13:12.415Z,-425.70
2019-01-24T06:14:12.630Z,-428.39
2019-01-24T06:15:12.803Z,-422.84
2019-01-24T06:16:12.938Z,-418.27
2019-01-24T06:17:13.117Z,-427.17
2019-01-24T06:18:13.292Z,-426.00
2019-01-24T06:19:13.454Z,-430.65
2019-01-24T06:20:13.643Z,-428.30
2019-01-24T06:21:13.812Z,-425.79
2019-01-24T06:22:13.963Z,-430.12
2019-01-24T06:23:14.288Z,-428.26
2019-01-24T06:24:14.324Z,-429.36
2019-01-24T06:25:14.513Z,-430.32
2019-01-24T06:26:14.661Z,-433.84
2019-01-24T06:27:14.829Z,-434.10
2019-01-24T06:28:15.032Z,-433.09
2019-01-24T06:29:15.193Z,-430.21
2019-01-24T06:30:15.382Z,-430.32
2019-01-24T06:31:15.618Z,-431.76
2019-01-24T06:32:15.701Z,-435.01
2019-01-24T06:33:15.901Z,-426.86
2019-01-24T06:34:16.044Z,-431.24
2019-01-24T06:35:16.233Z,-424.64
2019-01-24T06:36:16.405Z,-422.68
2019-01-24T06:37:16.537Z,-428.62
2019-01-24T06:38:16.731Z,-426.19
2019-01-24T06:39:16.976Z,-425.69
2019-01-24T06:40:17.061Z,-426.98
2019-01-24T06:41:17.237Z,-426.38
2019-01-24T06:42:17.389Z,-425.78
2019-01-24T06:43:17.564Z,-423.50
2019-01-24T06:44:17.728Z,-426.41
2019-01-24T06:45:17.916Z,-424.01
2019-01-24T06:46:18.077Z,-421.93
2019-01-24T06:47:18.288Z,-427.90
2019-01-24T06:48:18.383Z,-424.50
2019-01-24T06:49:18.544Z,-425.90
2019-01-24T06:50:18.745Z,-427.44
2019-01-24T06:51:18.912Z,-430.41
2019-01-24T06:52:19.078Z,-432.92
2019-01-24T06:53:19.264Z,-430.61
2019-01-24T06:54:19.416Z,-426.94
2019-01-24T06:55:19.616Z,-426.12
2019-01-24T06:56:19.839Z,-416.91
2019-01-24T06:57:20.157Z,-422.90
2019-01-24T06:58:20.113Z,-427.50
2019-01-24T06:59:20.275Z,-419.07
2019-01-24T07:00:20.436Z,-422.00
2019-01-24T07:01:20.620Z,-422.15
2019-01-24T07:02:20.787Z,-431.16
2019-01-24T07:03:20.975Z,-427.31
2019-01-24T07:04:21.209Z,-425.71
2019-01-24T07:05:21.383Z,-421.90
2019-01-24T07:06:21.482Z,-426.57
2019-01-24T07:07:21.633Z,-428.23
2019-01-24T07:08:21.814Z,-423.44
2019-01-24T07:09:21.959Z,-426.26
2019-01-24T07:10:22.160Z,-421.72
2019-01-24T07:11:22.323Z,-423.78
2019-01-24T07:12:22.593Z,-425.27
2019-01-24T07:13:22.660Z,-425.93
2019-01-24T07:14:22.814Z,-419.87
2019-01-24T07:15:23.004Z,-417.27
2019-01-24T07:16:23.157Z,-423.35
2019-01-24T07:17:23.323Z,-427.05
2019-01-24T07:18:23.509Z,-425.81
2019-01-24T07:19:23.662Z,-426.60
2019-01-24T07:20:23.897Z,-421.39
2019-01-24T07:21:24.001Z,-425.58
2019-01-24T07:22:24.145Z,-425.37
2019-01-24T07:23:24.349Z,-429.41
2019-01-24T07:24:24.533Z,-431.40
2019-01-24T07:25:24.668Z,-430.59
2019-01-24T07:26:24.853Z,-419.65
2019-01-24T07:27:25.005Z,-423.60
2019-01-24T07:28:25.211Z,-426.27
2019-01-24T07:29:25.339Z,-429.26
2019-01-24T07:30:25.525Z,-427.76
2019-01-24T07:31:25.727Z,-424.61
2019-01-24T07:32:25.868Z,-430.86
2019-01-24T07:33:26.063Z,-431.61
2019-01-24T07:34:26.191Z,-429.54
2019-01-24T07:35:26.387Z,-421.77
2019-01-24T07:36:26.632Z,-421.51
2019-01-24T07:37:26.801Z,-419.18
2019-01-24T07:38:26.902Z,-422.99
2019-01-24T07:39:27.050Z,-427.52
2019-01-24T07:40:27.237Z,-430.62
2019-01-24T07:41:27.431Z,-429.94
2019-01-24T07:42:27.582Z,-428.10
2019-01-24T07:43:27.763Z,-428.15
2019-01-24T07:44:27.914Z,-428.65
2019-01-24T07:45:28.197Z,-428.53
2019-01-24T07:46:28.292Z,-429.21
2019-01-24T07:47:28.430Z,-426.09
2019-01-24T07:48:28.610Z,-423.94
2019-01-24T07:49:28.753Z,-432.01
2019-01-24T07:50:28.923Z,-429.95
2019-01-24T07:51:29.131Z,-429.35
2019-01-24T07:52:29.280Z,-430.13
2019-01-24T07:53:29.538Z,-433.19
2019-01-24T07:54:29.598Z,-428.57
2019-01-24T07:55:29.752Z,-423.41
2019-01-24T07:56:29.969Z,-416.83
2019-01-24T07:57:30.130Z,-420.80
2019-01-24T07:58:30.299Z,-424.69
2019-01-24T07:59:30.453Z,-425.67
2019-01-24T08:00:30.626Z,-423.77
2019-01-24T08:01:30.854Z,-427.56
2019-01-24T08:02:30.961Z,-431.31
2019-01-24T08:03:31.136Z,-430.50
2019-01-24T08:04:31.282Z,-427.97
2019-01-24T08:05:31.452Z,-427.92
2019-01-24T08:06:31.640Z,-429.30
2019-01-24T08:07:31.799Z,-432.62
2019-01-24T08:08:31.984Z,-431.73
2019-01-24T08:09:32.185Z,-432.72
2019-01-24T08:10:32.350Z,-427.71
2019-01-24T08:11:32.512Z,-430.96
2019-01-24T08:12:32.667Z,-431.73
2019-01-24T08:13:32.856Z,-434.26
2019-01-24T08:14:33.018Z,-431.29
2019-01-24T08:15:33.191Z,-428.95
2019-01-24T08:16:33.378Z,-425.48
2019-01-24T08:17:33.555Z,-425.27
2019-01-24T08:18:33.800Z,-430.03
2019-01-24T08:19:33.865Z,-431.35
2019-01-24T08:20:34.036Z,-433.30
2019-01-24T08:21:34.223Z,-429.52
2019-01-24T08:22:34.385Z,-430.93
2019-01-24T08:23:34.545Z,-430.49
2019-01-24T08:24:34.691Z,-432.58
2019-01-24T08:25:34.878Z,-433.45
2019-01-24T08:26:35.231Z,-433.13
2019-01-24T08:27:35.218Z,-428.68
2019-01-24T08:28:35.374Z,-431.92
2019-01-24T08:29:35.558Z,-433.26
2019-01-24T08:30:35.746Z,-433.10
2019-01-24T08:31:35.948Z,-455.68
2019-01-24T08:32:36.121Z,-454.34
2019-01-24T08:33:36.253Z,-453.89
2019-01-24T08:34:36.464Z,-455.60
2019-01-24T08:35:36.824Z,-453.19
2019-01-24T08:36:36.794Z,-454.59
2019-01-24T08:37:36.955Z,-454.37
2019-01-24T08:38:37.110Z,-451.23
2019-01-24T08:39:37.296Z,-452.24
2019-01-24T08:40:37.467Z,-452.52
2019-01-24T08:41:37.637Z,-455.13
2019-01-24T08:42:37.886Z,-455.28
2019-01-24T08:43:37.951Z,-453.09
2019-01-24T08:44:38.143Z,-452.81
2019-01-24T08:45:38.300Z,-455.96
2019-01-24T08:46:38.478Z,-457.71
2019-01-24T08:47:38.661Z,-461.15
2019-01-24T08:48:38.832Z,-453.36
2019-01-24T08:49:39.021Z,-456.03
2019-01-24T08:50:39.194Z,-453.29
2019-01-24T08:51:39.429Z,-457.83
2019-01-24T08:52:39.520Z,-455.51
2019-01-24T08:53:39.702Z,-455.55
2019-01-24T08:54:39.881Z,-456.24
2019-01-24T08:55:40.031Z,-451.47
2019-01-24T08:56:40.234Z,-449.98
2019-01-24T08:57:40.356Z,-455.05
2019-01-24T08:58:40.531Z,-458.28
2019-01-24T08:59:40.834Z,-456.33
2019-01-24T09:00:40.880Z,-456.13
2019-01-24T09:01:41.080Z,-458.16
2019-01-24T09:02:41.195Z,-457.25
2019-01-24T09:03:41.386Z,-452.67
2019-01-24T09:04:41.588Z,-457.69
2019-01-24T09:05:41.740Z,-455.20
2019-01-24T09:06:41.933Z,-455.70
2019-01-24T09:07:42.174Z,-459.10
2019-01-24T09:08:42.246Z,-455.13
2019-01-24T09:09:42.446Z,-455.01
2019-01-24T09:10:42.596Z,-456.43
2019-01-24T09:11:42.787Z,-456.28
2019-01-24T09:12:42.938Z,-454.72
2019-01-24T09:13:43.123Z,-457.22
2019-01-24T09:14:43.279Z,-455.79
2019-01-24T09:15:43.481Z,-446.34
2019-01-24T09:16:43.643Z,-449.00
2019-01-24T09:17:43.780Z,-453.81
2019-01-24T09:18:43.972Z,-450.81
2019-01-24T09:19:44.131Z,-459.43
2019-01-24T09:20:44.263Z,-458.66
2019-01-24T09:21:44.464Z,-455.67
2019-01-24T09:22:44.651Z,-456.18
2019-01-24T09:23:44.882Z,-455.60
2019-01-24T09:24:44.994Z,-455.47
2019-01-24T09:25:45.126Z,-456.88
2019-01-24T09:26:45.356Z,-456.89
2019-01-24T09:27:45.499Z,-455.30
2019-01-24T09:28:45.642Z,-454.39
2019-01-24T09:29:45.839Z,-456.07
2019-01-24T09:30:45.990Z,-457.90
2019-01-24T09:31:46.162Z,-453.73
2019-01-24T09:32:46.486Z,-454.80
2019-01-24T09:33:46.509Z,-454.01
2019-01-24T09:34:46.692Z,-456.40
2019-01-24T09:35:46.844Z,-455.67
2019-01-24T09:36:47.013Z,-454.99
2019-01-24T09:37:47.201Z,-452.71
2019-01-24T09:38:47.386Z,-451.82
2019-01-24T09:39:47.569Z,-454.61
2019-01-24T09:40:47.869Z,-457.98
2019-01-24T09:41:47.891Z,-457.67
2019-01-24T09:42:48.097Z,-456.12
2019-01-24T09:43:48.259Z,-456.97
2019-01-24T09:44:48.441Z,-459.13
2019-01-24T09:45:48.596Z,-458.18
2019-01-24T09:46:48.768Z,-455.65
2019-01-24T09:47:48.941Z,-458.56
2019-01-24T09:48:49.179Z,-458.24
2019-01-24T09:49:49.286Z,-460.16
2019-01-24T09:50:49.445Z,-460.23
2019-01-24T09:51:49.635Z,-457.36
2019-01-24T09:52:49.802Z,-457.93
2019-01-24T09:53:49.965Z,-458.99
2019-01-24T09:54:50.151Z,-459.60
2019-01-24T09:55:50.303Z,-455.65
2019-01-24T09:56:50.543Z,-456.80
2019-01-24T09:57:50.644Z,-453.47
2019-01-24T09:58:50.808Z,-457.79
2019-01-24T09:59:50.991Z,-457.79
2019-01-24T10:00:51.150Z,-456.38
2019-01-24T10:01:51.325Z,-455.72
2019-01-24T10:02:51.521Z,-454.96
2019-01-24T10:03:51.679Z,-449.70
2019-01-24T10:04:51.864Z,-454.52
2019-01-24T10:05:52.071Z,-459.62
2019-01-24T10:06:52.196Z,-454.36
2019-01-24T10:07:52.385Z,-459.06
2019-01-24T10:08:52.543Z,-454.79
2019-01-24T10:09:52.716Z,-455.82
2019-01-24T10:10:52.858Z,-457.19
2019-01-24T10:11:53.045Z,-458.56
2019-01-24T10:12:53.502Z,-460.43
2019-01-24T10:13:53.518Z,-457.77
2019-01-24T10:14:53.577Z,-449.33
2019-01-24T10:15:53.707Z,-450.46
2019-01-24T10:16:53.897Z,-454.36
2019-01-24T10:17:54.073Z,-457.48
2019-01-24T10:18:54.238Z,-455.97
2019-01-24T10:19:54.413Z,-456.39
2019-01-24T10:20:54.571Z,-458.52
2019-01-24T10:21:54.860Z,-455.84
2019-01-24T10:22:54.915Z,-456.60
2019-01-24T10:23:57.997Z,-457.27
2019-01-24T10:24:55.261Z,-456.73
2019-01-24T10:25:55.413Z,-456.93
2019-01-24T10:26:55.586Z,-454.05
2019-01-24T10:27:55.766Z,-456.66
2019-01-24T10:28:55.937Z,-457.83
2019-01-24T10:29:56.199Z,-460.77
2019-01-24T10:30:56.256Z,-459.57
2019-01-24T10:31:56.433Z,-457.39
2019-01-24T10:32:56.602Z,-456.29
2019-01-24T10:33:56.774Z,-460.33
2019-01-24T10:34:56.956Z,-452.60
2019-01-24T10:35:57.111Z,-450.22
2019-01-24T10:36:57.280Z,-448.87
2019-01-24T10:37:57.534Z,-432.19
2019-01-24T10:38:57.596Z,-455.35
2019-01-24T10:39:57.791Z,-456.64
2019-01-24T10:40:57.939Z,-459.47
2019-01-24T10:41:58.119Z,-456.76
2019-01-24T10:42:58.310Z,-455.78
2019-01-24T10:43:58.477Z,-455.86
2019-01-24T10:44:58.627Z,-457.68
2019-01-24T10:45:58.826Z,-459.32
2019-01-24T10:46:59.010Z,-459.48
2019-01-24T10:47:59.167Z,-456.61
2019-01-24T10:48:59.390Z,-429.31
2019-01-24T10:49:59.466Z,-429.24
2019-01-24T10:50:59.648Z,-431.19
2019-01-24T10:51:59.820Z,-430.38
2019-01-24T10:53:00.026Z,-434.27
2019-01-24T10:54:00.164Z,-432.52
2019-01-24T10:55:00.458Z,-433.70
2019-01-24T10:56:00.513Z,-434.19
2019-01-24T10:57:00.744Z,-429.74
2019-01-24T10:58:00.906Z,-431.53
2019-01-24T10:59:01.021Z,-432.24
2019-01-24T11:00:01.186Z,-431.44
2019-01-24T11:01:01.364Z,-432.02
2019-01-24T11:02:02.876Z,-433.61
2019-01-24T11:03:02.064Z,-432.84
2019-01-24T11:04:01.907Z,-432.39
2019-01-24T11:05:02.054Z,-433.76
2019-01-24T11:06:02.227Z,-431.15
2019-01-24T11:07:02.392Z,-432.30
2019-01-24T11:08:02.588Z,-432.85
2019-01-24T11:09:02.760Z,-431.55
2019-01-24T11:10:02.916Z,-427.46
2019-01-24T11:11:03.151Z,-429.36
2019-01-24T11:12:03.341Z,-416.97
2019-01-24T11:13:03.558Z,-425.00
2019-01-24T11:14:03.751Z,-424.57
2019-01-24T11:15:03.909Z,-425.15
2019-01-24T11:16:04.105Z,-426.82
2019-01-24T11:17:04.255Z,-430.08
2019-01-24T11:18:04.448Z,-429.86
2019-01-24T11:19:04.667Z,-430.06
2019-01-24T11:20:04.782Z,-431.35
2019-01-24T11:21:04.985Z,-431.95
2019-01-24T11:22:05.143Z,-435.94
2019-01-24T11:23:05.339Z,-431.68
2019-01-24T11:24:05.533Z,-431.66
2019-01-24T11:25:05.669Z,-427.72
2019-01-24T11:26:05.891Z,-428.78
2019-01-24T11:27:06.049Z,-429.01
2019-01-24T11:28:06.319Z,-428.91
2019-01-24T11:29:06.401Z,-432.16
2019-01-24T11:30:06.564Z,-433.38
2019-01-24T11:31:06.757Z,-433.73
2019-01-24T11:32:06.917Z,-430.99
2019-01-24T11:33:07.110Z,-430.13
2019-01-24T11:34:07.328Z,-432.84
2019-01-24T11:35:07.430Z,-428.80
2019-01-24T11:36:07.746Z,-427.12
2019-01-24T11:37:07.808Z,-427.33
2019-01-24T11:38:08.000Z,-432.06
2019-01-24T11:39:08.180Z,-429.30
2019-01-24T11:40:08.334Z,-434.39
2019-01-24T11:41:08.535Z,-432.06
2019-01-24T11:42:08.695Z,-429.62
2019-01-24T11:43:08.890Z,-431.92
2019-01-24T11:44:09.134Z,-433.61
2019-01-24T11:45:09.158Z,-431.34
2019-01-24T11:46:09.328Z,-431.43
2019-01-24T11:47:09.499Z,-434.47
2019-01-24T11:48:09.675Z,-433.63
2019-01-24T11:49:09.867Z,-432.49
2019-01-24T11:50:10.020Z,-427.36
2019-01-24T11:51:10.438Z,-430.30
2019-01-24T11:52:10.621Z,-427.73
2019-01-24T11:53:10.596Z,-423.88
2019-01-24T11:54:10.761Z,-429.26
2019-01-24T11:55:10.951Z,-430.87
2019-01-24T11:56:11.107Z,-429.15
2019-01-24T11:57:11.264Z,-432.63
2019-01-24T11:58:11.482Z,-431.78
2019-01-24T11:59:11.644Z,-432.61
2019-01-24T12:00:11.878Z,-432.91
2019-01-24T12:01:12.019Z,-434.20
2019-01-24T12:02:12.163Z,-431.55
2019-01-24T12:03:12.364Z,-433.05
2019-01-24T12:04:12.535Z,-432.48
2019-01-24T12:05:12.732Z,-431.50
2019-01-24T12:06:12.907Z,-432.84
2019-01-24T12:07:13.060Z,-431.47